createdAt,value
2022-12-01T00:00:11.381Z,5.44
2022-12-01T00:01:14.075Z,5.44
2022-12-01T00:02:17.412Z,5.44
2022-12-01T00:03:53.938Z,5.44
2022-12-01T00:04:56.644Z,5.44
2022-12-01T00:05:59.372Z,5.38
2022-12-01T00:07:33.923Z,5.38
2022-12-01T00:08:37.236Z,5.38
2022-12-01T00:09:40.052Z,5.38
2022-12-01T00:11:15.072Z,5.38
2022-12-01T00:12:17.769Z,5.38
2022-12-01T00:13:20.533Z,5.38
2022-12-01T00:14:55.172Z,5.38
2022-12-01T00:15:57.856Z,5.38
2022-12-01T00:17:00.974Z,5.38
2022-12-01T00:18:35.460Z,5.38
2022-12-01T00:19:38.285Z,5.38
2022-12-01T00:20:41.716Z,5.38
2022-12-01T00:22:16.191Z,5.38
2022-12-01T00:23:18.910Z,5.38
2022-12-01T00:24:21.556Z,5.31
2022-12-01T00:25:56.197Z,5.38
2022-12-01T00:26:58.908Z,5.31
2022-12-01T00:28:01.745Z,5.31
2022-12-01T00:29:36.161Z,5.38
2022-12-01T00:30:39.765Z,5.38
2022-12-01T00:31:42.674Z,5.38
2022-12-01T00:33:17.707Z,5.38
2022-12-01T00:34:20.575Z,5.38
2022-12-01T00:35:23.387Z,5.31
2022-12-01T00:36:58.001Z,5.31
2022-12-01T00:38:00.726Z,5.31
2022-12-01T00:39:03.403Z,5.38
2022-12-01T00:40:38.023Z,5.31
2022-12-01T00:41:40.829Z,5.31
2022-12-01T00:42:48.452Z,5.38
2022-12-01T00:44:22.968Z,5.31
2022-12-01T00:45:25.769Z,5.31
2022-12-01T00:46:29.275Z,5.31
2022-12-01T00:48:04.026Z,5.31
2022-12-01T00:49:06.815Z,5.31
2022-12-01T00:50:09.553Z,5.38
2022-12-01T00:51:44.200Z,5.38
2022-12-01T00:52:46.903Z,5.38
2022-12-01T00:53:49.641Z,5.38
2022-12-01T00:55:24.201Z,5.38
2022-12-01T00:56:26.815Z,5.31
2022-12-01T00:57:29.570Z,5.31
2022-12-01T00:59:03.929Z,5.38
2022-12-01T01:00:11.962Z,5.31
2022-12-01T01:01:14.725Z,5.31
2022-12-01T01:02:18.032Z,5.38
2022-12-01T01:03:53.100Z,5.38
2022-12-01T01:04:55.713Z,5.38
2022-12-01T01:05:58.521Z,5.31
2022-12-01T01:07:33.203Z,5.38
2022-12-01T01:08:36.458Z,5.31
2022-12-01T01:09:39.187Z,5.38
2022-12-01T01:11:13.936Z,5.31
2022-12-01T01:12:16.655Z,5.31
2022-12-01T01:13:19.309Z,5.31
2022-12-01T01:14:53.865Z,5.31
2022-12-01T01:15:56.620Z,5.31
2022-12-01T01:16:59.870Z,5.31
2022-12-01T01:18:34.731Z,5.31
2022-12-01T01:19:37.625Z,5.31
2022-12-01T01:20:40.898Z,5.31
2022-12-01T01:22:15.433Z,5.31
2022-12-01T01:23:18.182Z,5.25
2022-12-01T01:24:20.909Z,5.25
2022-12-01T01:25:55.494Z,5.31
2022-12-01T01:26:58.357Z,5.31
2022-12-01T01:28:00.952Z,5.31
2022-12-01T01:29:35.479Z,5.31
2022-12-01T01:30:38.926Z,5.31
2022-12-01T01:31:42.107Z,5.31
2022-12-01T01:33:16.556Z,5.31
2022-12-01T01:34:19.127Z,5.31
2022-12-01T01:35:21.941Z,5.31
2022-12-01T01:36:56.439Z,5.31
2022-12-01T01:37:59.150Z,5.31
2022-12-01T01:39:01.967Z,5.31
2022-12-01T01:40:36.740Z,5.31
2022-12-01T01:41:39.555Z,5.31
2022-12-01T01:42:42.256Z,5.31
2022-12-01T01:44:16.858Z,5.31
2022-12-01T01:45:19.540Z,5.31
2022-12-01T01:46:22.637Z,5.31
2022-12-01T01:47:57.404Z,5.31
2022-12-01T01:49:00.199Z,5.31
2022-12-01T01:50:02.893Z,5.31
2022-12-01T01:51:37.301Z,5.31
2022-12-01T01:52:40.140Z,5.31
2022-12-01T01:53:42.898Z,5.31
2022-12-01T01:55:17.445Z,5.31
2022-12-01T01:56:20.417Z,5.31
2022-12-01T01:57:23.156Z,5.31
2022-12-01T01:58:57.698Z,5.31
2022-12-01T02:00:00.415Z,5.31
2022-12-01T02:00:11.550Z,5.31
2022-12-01T02:01:14.470Z,5.38
2022-12-01T02:02:17.846Z,5.31
2022-12-01T02:03:53.313Z,5.38
2022-12-01T02:04:56.101Z,5.38
2022-12-01T02:06:04.539Z,5.38
2022-12-01T02:07:39.692Z,5.38
2022-12-01T02:08:43.138Z,5.38
2022-12-01T02:09:46.114Z,5.38
2022-12-01T02:11:21.050Z,5.38
2022-12-01T02:12:23.794Z,5.38
2022-12-01T02:13:26.596Z,5.38
2022-12-01T02:15:01.092Z,5.38
2022-12-01T02:16:03.867Z,5.38
2022-12-01T02:17:06.930Z,5.38
2022-12-01T02:18:48.254Z,5.38
2022-12-01T02:19:51.236Z,5.38
2022-12-01T02:20:54.044Z,5.38
2022-12-01T02:22:28.504Z,5.38
2022-12-01T02:23:38.225Z,5.38
2022-12-01T02:24:40.890Z,5.38
2022-12-01T02:26:15.347Z,5.38
2022-12-01T02:27:18.129Z,5.38
2022-12-01T02:28:20.736Z,5.38
2022-12-01T02:29:55.220Z,5.38
2022-12-01T02:30:58.115Z,5.38
2022-12-01T02:32:01.371Z,5.38
2022-12-01T02:33:35.934Z,5.38
2022-12-01T02:34:38.653Z,5.38
2022-12-01T02:35:41.402Z,5.38
2022-12-01T02:37:15.936Z,5.38
2022-12-01T02:38:18.598Z,5.38
2022-12-01T02:39:21.371Z,5.38
2022-12-01T02:40:56.124Z,5.38
2022-12-01T02:41:58.871Z,5.38
2022-12-01T02:43:01.545Z,5.38
2022-12-01T02:44:36.078Z,5.38
2022-12-01T02:45:38.827Z,5.31
2022-12-01T02:46:42.062Z,5.31
2022-12-01T02:48:16.578Z,5.31
2022-12-01T02:49:19.307Z,5.38
2022-12-01T02:50:22.737Z,5.31
2022-12-01T02:51:57.207Z,5.31
2022-12-01T02:52:59.961Z,5.31
2022-12-01T02:54:02.606Z,5.31
2022-12-01T02:55:37.053Z,5.31
2022-12-01T02:56:39.885Z,5.31
2022-12-01T02:57:42.562Z,5.31
2022-12-01T02:59:17.148Z,5.31
2022-12-01T03:00:11.180Z,5.31
2022-12-01T03:01:13.968Z,5.31
2022-12-01T03:02:17.391Z,5.31
2022-12-01T03:03:52.589Z,5.31
2022-12-01T03:04:55.419Z,5.31
2022-12-01T03:05:58.254Z,5.31
2022-12-01T03:07:32.843Z,5.31
2022-12-01T03:08:36.171Z,5.31
2022-12-01T03:09:38.897Z,5.25
2022-12-01T03:11:14.135Z,5.25
2022-12-01T03:12:16.955Z,5.25
2022-12-01T03:13:19.761Z,5.25
2022-12-01T03:14:54.245Z,5.25
2022-12-01T03:15:57.109Z,5.25
2022-12-01T03:17:00.541Z,5.25
2022-12-01T03:18:34.975Z,5.31
2022-12-01T03:19:37.762Z,5.25
2022-12-01T03:20:40.803Z,5.31
2022-12-01T03:22:15.409Z,5.25
2022-12-01T03:23:18.130Z,5.25
2022-12-01T03:24:20.844Z,5.25
2022-12-01T03:25:55.482Z,5.25
2022-12-01T03:26:58.252Z,5.25
2022-12-01T03:28:20.595Z,5.25
2022-12-01T03:29:55.966Z,5.25
2022-12-01T03:30:58.979Z,5.25
2022-12-01T03:32:02.245Z,5.19
2022-12-01T03:33:36.739Z,5.25
2022-12-01T03:34:39.459Z,5.25
2022-12-01T03:35:42.133Z,5.25
2022-12-01T03:37:16.742Z,5.19
2022-12-01T03:38:19.468Z,5.19
2022-12-01T03:39:22.189Z,5.19
2022-12-01T03:40:57.980Z,5.19
2022-12-01T03:42:00.827Z,5.19
2022-12-01T03:43:03.633Z,5.19
2022-12-01T03:44:38.133Z,5.19
2022-12-01T03:45:40.965Z,5.19
2022-12-01T03:46:44.256Z,5.19
2022-12-01T03:48:19.061Z,5.19
2022-12-01T03:49:21.707Z,5.19
2022-12-01T03:50:24.781Z,5.19
2022-12-01T03:51:59.286Z,5.19
2022-12-01T03:53:01.927Z,5.19
2022-12-01T03:54:04.758Z,5.19
2022-12-01T03:55:39.234Z,5.19
2022-12-01T03:56:42.034Z,5.19
2022-12-01T03:57:44.740Z,5.19
2022-12-01T03:59:19.227Z,5.19
2022-12-01T04:00:11.780Z,5.19
2022-12-01T04:01:14.647Z,5.19
2022-12-01T04:02:17.966Z,5.19
2022-12-01T04:03:53.423Z,5.19
2022-12-01T04:04:56.185Z,5.13
2022-12-01T04:06:05.627Z,5.19
2022-12-01T04:07:40.184Z,5.19
2022-12-01T04:08:43.518Z,5.19
2022-12-01T04:09:46.446Z,5.19
2022-12-01T04:11:21.278Z,5.19
2022-12-01T04:12:29.853Z,5.13
2022-12-01T04:13:32.606Z,5.13
2022-12-01T04:15:07.219Z,5.13
2022-12-01T04:16:10.014Z,5.13
2022-12-01T04:17:13.379Z,5.13
2022-12-01T04:18:47.801Z,5.13
2022-12-01T04:19:50.757Z,5.19
2022-12-01T04:20:53.601Z,5.19
2022-12-01T04:22:28.182Z,5.19
2022-12-01T04:23:30.885Z,5.19
2022-12-01T04:24:33.616Z,5.19
2022-12-01T04:26:12.639Z,5.19
2022-12-01T04:27:18.251Z,5.19
2022-12-01T04:28:21.050Z,5.19
2022-12-01T04:29:55.544Z,5.19
2022-12-01T04:30:58.414Z,5.13
2022-12-01T04:32:01.680Z,5.13
2022-12-01T04:33:36.178Z,5.13
2022-12-01T04:34:39.083Z,5.13
2022-12-01T04:35:41.773Z,5.13
2022-12-01T04:37:16.350Z,5.13
2022-12-01T04:38:18.902Z,5.13
2022-12-01T04:39:27.598Z,5.13
2022-12-01T04:41:02.493Z,5.13
2022-12-01T04:42:05.229Z,5.13
2022-12-01T04:43:07.942Z,5.19
2022-12-01T04:44:42.456Z,5.19
2022-12-01T04:45:45.304Z,5.19
2022-12-01T04:46:48.231Z,5.13
2022-12-01T04:48:23.070Z,5.19
2022-12-01T04:49:25.804Z,5.19
2022-12-01T04:50:28.823Z,5.19
2022-12-01T04:52:03.350Z,5.19
2022-12-01T04:53:11.045Z,5.19
2022-12-01T04:54:13.851Z,5.19
2022-12-01T04:55:48.300Z,5.13
2022-12-01T04:56:51.052Z,5.13
2022-12-01T04:57:53.796Z,5.13
2022-12-01T04:59:28.333Z,5.13
2022-12-01T05:00:12.069Z,5.13
2022-12-01T05:01:14.969Z,5.13
2022-12-01T05:02:18.512Z,5.13
2022-12-01T05:04:00.738Z,5.13
2022-12-01T05:05:41.496Z,5.13
2022-12-01T05:06:44.196Z,5.13
2022-12-01T05:07:46.956Z,5.13
2022-12-01T05:09:21.881Z,5.13
2022-12-01T05:10:25.112Z,5.13
2022-12-01T05:11:27.981Z,5.13
2022-12-01T05:13:02.523Z,5.13
2022-12-01T05:14:05.233Z,5.13
2022-12-01T05:15:07.960Z,5.13
2022-12-01T05:16:42.680Z,5.13
2022-12-01T05:17:45.546Z,5.13
2022-12-01T05:18:48.214Z,5.13
2022-12-01T05:20:23.668Z,5.13
2022-12-01T05:21:26.447Z,5.13
2022-12-01T05:22:57.287Z,5.13
2022-12-01T05:24:45.421Z,5.13
2022-12-01T05:25:48.280Z,5.13
2022-12-01T05:26:51.137Z,5.06
2022-12-01T05:28:25.586Z,5.06
2022-12-01T05:29:28.380Z,5.06
2022-12-01T05:30:31.481Z,5.06
2022-12-01T05:32:06.519Z,5.06
2022-12-01T05:33:09.189Z,5.06
2022-12-01T05:34:11.923Z,5.06
2022-12-01T05:35:46.452Z,5.06
2022-12-01T05:36:49.254Z,5.06
2022-12-01T05:37:52.076Z,5.06
2022-12-01T05:39:31.404Z,5.06
2022-12-01T05:40:34.704Z,5.06
2022-12-01T05:41:37.388Z,5.06
2022-12-01T05:43:11.947Z,5.06
2022-12-01T05:44:20.476Z,5.13
2022-12-01T05:45:23.126Z,5.13
2022-12-01T05:46:58.549Z,5.06
2022-12-01T05:48:01.184Z,5.06
2022-12-01T05:49:03.989Z,5.06
2022-12-01T05:50:45.768Z,5.06
2022-12-01T05:51:48.546Z,5.06
2022-12-01T05:52:51.180Z,5.06
2022-12-01T05:54:25.765Z,5.06
2022-12-01T05:55:28.676Z,5.06
2022-12-01T05:56:31.414Z,5.06
2022-12-01T05:58:06.039Z,5.06
2022-12-01T05:59:08.783Z,5.06
2022-12-01T06:00:12.426Z,5.06
2022-12-01T06:01:20.951Z,5.06
2022-12-01T06:02:24.002Z,5.06
2022-12-01T06:03:58.701Z,5.06
2022-12-01T06:05:01.670Z,5.06
2022-12-01T06:06:04.430Z,5.06
2022-12-01T06:07:38.933Z,5.06
2022-12-01T06:08:42.053Z,5.06
2022-12-01T06:09:44.777Z,5.06
2022-12-01T06:11:19.724Z,5.06
2022-12-01T06:12:27.252Z,5.06
2022-12-01T06:13:30.004Z,5.06
2022-12-01T06:15:04.601Z,5.06
2022-12-01T06:16:07.331Z,5.06
2022-12-01T06:17:10.747Z,5.06
2022-12-01T06:18:52.244Z,5.06
2022-12-01T06:19:54.963Z,5.06
2022-12-01T06:20:57.650Z,5.06
2022-12-01T06:22:32.269Z,5.06
2022-12-01T06:23:35.022Z,5.06
2022-12-01T06:24:37.648Z,5.06
2022-12-01T06:26:12.352Z,5.06
2022-12-01T06:27:15.075Z,5.06
2022-12-01T06:28:17.878Z,5.06
2022-12-01T06:29:52.978Z,5.06
2022-12-01T06:31:02.581Z,5.06
2022-12-01T06:32:06.600Z,5.06
2022-12-01T06:33:41.507Z,5.06
2022-12-01T06:34:44.302Z,5.06
2022-12-01T06:35:46.901Z,5.06
2022-12-01T06:37:21.486Z,5.06
2022-12-01T06:38:24.129Z,5.06
2022-12-01T06:39:26.815Z,5.06
2022-12-01T06:41:01.552Z,5.06
2022-12-01T06:42:04.229Z,5.06
2022-12-01T06:43:07.020Z,5.06
2022-12-01T06:44:41.806Z,5.06
2022-12-01T06:45:44.786Z,5.06
2022-12-01T06:46:54.030Z,5.06
2022-12-01T06:48:28.716Z,5.06
2022-12-01T06:49:31.485Z,5.06
2022-12-01T06:50:34.528Z,5.06
2022-12-01T06:52:09.153Z,5.06
2022-12-01T06:53:11.792Z,5.06
2022-12-01T06:54:14.705Z,5.06
2022-12-01T06:55:49.928Z,5.06
2022-12-01T06:56:54.299Z,5.06
2022-12-01T06:57:58.590Z,5.06
2022-12-01T06:59:35.045Z,5.06
2022-12-01T07:00:12.148Z,5.06
2022-12-01T07:01:15.868Z,5.06
2022-12-01T07:02:19.143Z,5.06
2022-12-01T07:03:54.192Z,5.00
2022-12-01T07:04:56.842Z,5.06
2022-12-01T07:05:59.581Z,5.06
2022-12-01T07:07:34.242Z,5.00
2022-12-01T07:08:45.478Z,5.06
2022-12-01T07:09:48.699Z,5.06
2022-12-01T07:11:23.422Z,5.00
2022-12-01T07:12:26.133Z,5.06
2022-12-01T07:13:33.065Z,5.06
2022-12-01T07:15:08.198Z,5.00
2022-12-01T07:16:10.969Z,5.00
2022-12-01T07:17:14.142Z,5.06
2022-12-01T07:18:48.775Z,5.06
2022-12-01T07:19:51.811Z,5.06
2022-12-01T07:20:54.711Z,5.06
2022-12-01T07:22:32.609Z,5.06
2022-12-01T07:23:35.858Z,5.06
2022-12-01T07:24:38.651Z,5.06
2022-12-01T07:26:13.280Z,5.06
2022-12-01T07:27:16.225Z,5.06
2022-12-01T07:28:18.876Z,5.06
2022-12-01T07:29:53.582Z,5.06
2022-12-01T07:31:03.335Z,5.06
2022-12-01T07:32:06.932Z,5.06
2022-12-01T07:33:41.402Z,5.06
2022-12-01T07:34:44.227Z,5.06
2022-12-01T07:35:47.215Z,5.06
2022-12-01T07:37:21.722Z,5.06
2022-12-01T07:38:24.678Z,5.06
2022-12-01T07:39:27.367Z,5.06
2022-12-01T07:41:02.615Z,5.06
2022-12-01T07:42:05.332Z,5.06
2022-12-01T07:43:08.051Z,5.06
2022-12-01T07:44:42.719Z,5.06
2022-12-01T07:45:45.466Z,5.06
2022-12-01T07:46:55.330Z,5.06
2022-12-01T07:48:29.852Z,5.06
2022-12-01T07:49:32.701Z,5.06
2022-12-01T07:50:36.129Z,5.06
2022-12-01T07:52:10.662Z,5.06
2022-12-01T07:53:13.399Z,5.06
2022-12-01T07:54:16.063Z,5.06
2022-12-01T07:55:50.729Z,5.06
2022-12-01T07:57:00.068Z,5.06
2022-12-01T07:58:02.770Z,5.06
2022-12-01T07:59:37.409Z,5.13
2022-12-01T08:00:11.988Z,5.06
2022-12-01T08:01:14.944Z,5.13
2022-12-01T08:02:24.791Z,5.13
2022-12-01T08:04:00.130Z,5.13
2022-12-01T08:05:02.836Z,5.13
2022-12-01T08:06:05.908Z,5.13
2022-12-01T08:07:40.604Z,5.13
2022-12-01T08:08:43.824Z,5.13
2022-12-01T08:09:46.721Z,5.13
2022-12-01T08:11:21.555Z,5.13
2022-12-01T08:12:24.218Z,5.13
2022-12-01T08:13:27.022Z,5.13
2022-12-01T08:15:01.513Z,5.13
2022-12-01T08:16:04.572Z,5.13
2022-12-01T08:17:07.620Z,5.13
2022-12-01T08:18:42.241Z,5.13
2022-12-01T08:19:45.010Z,5.13
2022-12-01T08:20:48.159Z,5.13
2022-12-01T08:22:22.796Z,5.19
2022-12-01T08:23:25.650Z,5.19
2022-12-01T08:24:28.453Z,5.19
2022-12-01T08:26:02.966Z,5.19
2022-12-01T08:27:05.758Z,5.19
2022-12-01T08:28:08.622Z,5.19
2022-12-01T08:29:43.178Z,5.19
2022-12-01T08:30:46.430Z,5.19
2022-12-01T08:31:49.658Z,5.19
2022-12-01T08:33:24.298Z,5.19
2022-12-01T08:34:27.059Z,5.19
2022-12-01T08:35:34.224Z,5.19
2022-12-01T08:37:08.759Z,5.25
2022-12-01T08:38:11.425Z,5.19
2022-12-01T08:39:14.298Z,5.25
2022-12-01T08:40:49.027Z,5.25
2022-12-01T08:41:51.827Z,5.25
2022-12-01T08:42:54.534Z,5.25
2022-12-01T08:45:12.076Z,5.25
2022-12-01T08:46:14.855Z,5.25
2022-12-01T08:47:19.082Z,5.25
2022-12-01T08:48:53.752Z,5.25
2022-12-01T08:49:56.476Z,5.25
2022-12-01T08:50:59.391Z,5.25
2022-12-01T08:52:33.900Z,5.31
2022-12-01T08:53:40.170Z,5.31
2022-12-01T08:54:45.300Z,5.31
2022-12-01T08:56:19.901Z,5.31
2022-12-01T08:57:22.634Z,5.31
2022-12-01T08:58:25.422Z,5.31
2022-12-01T08:59:59.880Z,5.31
2022-12-01T09:00:11.578Z,5.31
2022-12-01T09:01:14.514Z,5.31
2022-12-01T09:02:18.065Z,5.31
2022-12-01T09:03:53.648Z,5.38
2022-12-01T09:04:56.485Z,5.38
2022-12-01T09:05:59.186Z,5.38
2022-12-01T09:07:33.771Z,5.38
2022-12-01T09:08:37.201Z,5.38
2022-12-01T09:09:39.866Z,5.38
2022-12-01T09:11:14.935Z,5.38
2022-12-01T09:12:17.848Z,5.44
2022-12-01T09:13:20.654Z,5.38
2022-12-01T09:15:01.038Z,5.44
2022-12-01T09:16:03.842Z,5.44
2022-12-01T09:17:07.593Z,5.44
2022-12-01T09:18:41.975Z,5.44
2022-12-01T09:19:48.350Z,5.44
2022-12-01T09:20:51.337Z,5.44
2022-12-01T09:22:25.999Z,5.44
2022-12-01T09:23:28.804Z,5.44
2022-12-01T09:24:31.498Z,5.44
2022-12-01T09:26:09.711Z,5.50
2022-12-01T09:27:15.333Z,5.50
2022-12-01T09:28:18.195Z,5.50
2022-12-01T09:29:52.762Z,5.50
2022-12-01T09:30:55.807Z,5.50
2022-12-01T09:31:59.402Z,5.50
2022-12-01T09:33:34.007Z,5.44
2022-12-01T09:34:36.788Z,5.44
2022-12-01T09:35:39.396Z,5.44
2022-12-01T09:37:14.042Z,5.44
2022-12-01T09:38:16.733Z,5.44
2022-12-01T09:39:19.618Z,5.50
2022-12-01T09:40:54.797Z,5.50
2022-12-01T09:41:57.585Z,5.50
2022-12-01T09:43:14.282Z,5.50
2022-12-01T09:44:48.890Z,5.50
2022-12-01T09:45:51.939Z,5.56
2022-12-01T09:46:55.009Z,5.56
2022-12-01T09:48:29.852Z,5.56
2022-12-01T09:49:32.628Z,5.56
2022-12-01T09:50:35.823Z,5.56
2022-12-01T09:52:10.460Z,5.56
2022-12-01T09:53:13.218Z,5.56
2022-12-01T09:54:15.995Z,5.56
2022-12-01T09:55:50.536Z,5.63
2022-12-01T09:57:04.807Z,5.63
2022-12-01T09:58:07.600Z,5.63
2022-12-01T09:59:42.128Z,5.63
2022-12-01T10:00:11.124Z,5.63
2022-12-01T10:01:14.076Z,5.69
2022-12-01T10:02:24.720Z,5.69
2022-12-01T10:03:59.555Z,5.69
2022-12-01T10:05:02.334Z,5.69
2022-12-01T10:06:28.692Z,5.69
2022-12-01T10:08:04.405Z,5.69
2022-12-01T10:09:13.096Z,5.69
2022-12-01T10:10:15.831Z,5.69
2022-12-01T10:11:50.433Z,5.75
2022-12-01T10:12:53.207Z,5.75
2022-12-01T10:13:55.980Z,5.75
2022-12-01T10:15:37.495Z,5.81
2022-12-01T10:16:40.736Z,5.81
2022-12-01T10:17:43.676Z,5.81
2022-12-01T10:19:18.134Z,5.81
2022-12-01T10:20:20.882Z,5.81
2022-12-01T10:21:23.648Z,5.81
2022-12-01T10:22:58.169Z,5.81
2022-12-01T10:24:00.938Z,5.81
2022-12-01T10:25:03.640Z,5.81
2022-12-01T10:26:38.173Z,5.81
2022-12-01T10:27:40.852Z,5.81
2022-12-01T10:28:43.632Z,5.88
2022-12-01T10:30:22.691Z,5.88
2022-12-01T10:31:25.501Z,5.88
2022-12-01T10:32:28.789Z,5.88
2022-12-01T10:34:03.423Z,5.88
2022-12-01T10:35:06.195Z,5.94
2022-12-01T10:36:09.016Z,5.94
2022-12-01T10:37:43.493Z,5.94
2022-12-01T10:38:46.962Z,5.94
2022-12-01T10:39:50.069Z,5.94
2022-12-01T10:41:24.686Z,5.94
2022-12-01T10:42:27.761Z,5.94
2022-12-01T10:43:30.735Z,6.00
2022-12-01T10:45:05.488Z,5.94
2022-12-01T10:46:08.526Z,6.00
2022-12-01T10:47:11.409Z,6.00
2022-12-01T10:48:46.047Z,6.00
2022-12-01T10:49:49.187Z,6.00
2022-12-01T10:50:52.281Z,6.00
2022-12-01T10:52:26.931Z,6.06
2022-12-01T10:53:29.858Z,6.00
2022-12-01T10:54:32.666Z,6.06
2022-12-01T10:56:07.195Z,6.06
2022-12-01T10:57:09.954Z,6.06
2022-12-01T10:58:12.588Z,6.06
2022-12-01T10:59:47.709Z,6.06
2022-12-01T11:00:25.543Z,6.06
2022-12-01T11:01:58.523Z,6.06
2022-12-01T11:03:03.130Z,6.13
2022-12-01T11:04:46.132Z,6.13
2022-12-01T11:05:49.011Z,6.13
2022-12-01T11:06:51.797Z,6.19
2022-12-01T11:08:26.908Z,6.19
2022-12-01T11:09:29.814Z,6.19
2022-12-01T11:10:33.238Z,6.19
2022-12-01T11:12:07.857Z,6.19
2022-12-01T11:13:10.595Z,6.19
2022-12-01T11:14:13.382Z,6.19
2022-12-01T11:15:47.965Z,6.19
2022-12-01T11:16:51.034Z,6.19
2022-12-01T11:17:54.168Z,6.19
2022-12-01T11:19:29.152Z,6.25
2022-12-01T11:20:33.603Z,6.25
2022-12-01T11:21:36.950Z,6.25
2022-12-01T11:23:11.523Z,6.25
2022-12-01T11:24:14.555Z,6.25
2022-12-01T11:25:17.260Z,6.25
2022-12-01T11:26:51.923Z,6.25
2022-12-01T11:27:54.657Z,6.25
2022-12-01T11:28:57.367Z,6.25
2022-12-01T11:30:32.582Z,6.19
2022-12-01T11:31:42.585Z,6.19
2022-12-01T11:32:45.916Z,6.19
2022-12-01T11:34:20.471Z,6.19
2022-12-01T11:35:23.747Z,6.25
2022-12-01T11:36:26.557Z,6.25
2022-12-01T11:38:28.175Z,6.25
2022-12-01T11:39:31.902Z,6.25
2022-12-01T11:40:35.112Z,6.25
2022-12-01T11:42:09.894Z,6.25
2022-12-01T11:43:12.586Z,6.31
2022-12-01T11:44:50.297Z,6.31
2022-12-01T11:46:26.061Z,6.31
2022-12-01T11:48:07.385Z,6.31
2022-12-01T11:49:10.144Z,6.31
2022-12-01T11:50:52.130Z,6.38
2022-12-01T11:51:54.815Z,6.38
2022-12-01T11:52:57.675Z,6.38
2022-12-01T11:54:32.317Z,6.38
2022-12-01T11:55:40.553Z,6.44
2022-12-01T11:56:43.333Z,6.44
2022-12-01T11:59:36.620Z,6.50
2022-12-01T12:00:11.265Z,6.50
2022-12-01T12:01:19.017Z,6.50
2022-12-01T12:02:24.745Z,6.56
2022-12-01T12:03:59.749Z,6.63
2022-12-01T12:05:02.706Z,6.63
2022-12-01T12:06:32.255Z,6.69
2022-12-01T12:08:14.126Z,6.69
2022-12-01T12:09:17.189Z,6.69
2022-12-01T12:10:26.479Z,6.75
2022-12-01T12:12:01.738Z,6.75
2022-12-01T12:13:04.477Z,6.81
2022-12-01T12:14:07.366Z,6.81
2022-12-01T12:15:42.524Z,6.81
2022-12-01T12:16:46.489Z,6.81
2022-12-01T12:17:49.743Z,6.81
2022-12-01T12:19:33.717Z,6.81
2022-12-01T12:21:05.748Z,6.88
2022-12-01T12:22:08.642Z,6.81
2022-12-01T12:23:43.273Z,6.88
2022-12-01T12:24:45.981Z,6.88
2022-12-01T12:25:48.880Z,6.88
2022-12-01T12:27:23.474Z,6.88
2022-12-01T12:28:26.302Z,6.88
2022-12-01T12:29:29.024Z,6.88
2022-12-01T12:31:04.276Z,6.94
2022-12-01T12:32:07.538Z,6.94
2022-12-01T12:33:10.359Z,6.94
2022-12-01T12:34:45.023Z,6.94
2022-12-01T12:35:47.724Z,6.88
2022-12-01T12:36:50.474Z,6.88
2022-12-01T12:38:25.210Z,6.88
2022-12-01T12:39:27.930Z,6.94
2022-12-01T12:40:31.425Z,6.94
2022-12-01T12:42:05.952Z,6.94
2022-12-01T12:43:08.782Z,6.94
2022-12-01T12:44:11.690Z,6.94
2022-12-01T12:45:53.351Z,6.94
2022-12-01T12:46:56.684Z,6.88
2022-12-01T12:47:59.423Z,6.88
2022-12-01T12:50:04.501Z,6.81
2022-12-01T12:51:07.215Z,6.88
2022-12-01T12:52:10.000Z,6.81
2022-12-01T12:53:44.562Z,6.81
2022-12-01T12:54:48.088Z,6.81
2022-12-01T12:55:50.878Z,6.88
2022-12-01T12:57:25.442Z,6.88
2022-12-01T12:58:28.275Z,6.88
2022-12-01T12:59:31.001Z,6.88
2022-12-01T13:00:11.928Z,6.88
2022-12-01T13:01:14.716Z,6.88
2022-12-01T13:02:18.071Z,6.88
2022-12-01T13:03:53.428Z,6.88
2022-12-01T13:04:56.238Z,6.88
2022-12-01T13:05:59.015Z,6.81
2022-12-01T13:07:33.711Z,6.81
2022-12-01T13:08:37.274Z,6.88
2022-12-01T13:09:42.000Z,6.88
2022-12-01T13:11:18.863Z,6.88
2022-12-01T13:12:21.582Z,6.94
2022-12-01T13:13:24.368Z,6.94
2022-12-01T13:15:01.223Z,6.94
2022-12-01T13:16:04.559Z,6.94
2022-12-01T13:17:07.793Z,6.94
2022-12-01T13:18:42.298Z,6.94
2022-12-01T13:19:45.211Z,6.94
2022-12-01T13:20:48.445Z,6.88
2022-12-01T13:22:23.490Z,6.88
2022-12-01T13:23:26.442Z,6.88
2022-12-01T13:24:29.091Z,6.88
2022-12-01T13:26:03.787Z,6.88
2022-12-01T13:27:06.620Z,6.81
2022-12-01T13:28:09.426Z,6.81
2022-12-01T13:29:44.360Z,6.81
2022-12-01T13:30:47.577Z,6.81
2022-12-01T13:31:50.934Z,6.81
2022-12-01T13:33:25.594Z,6.81
2022-12-01T13:34:28.480Z,6.81
2022-12-01T13:35:31.643Z,6.81
2022-12-01T13:37:59.810Z,6.81
2022-12-01T13:39:02.575Z,6.75
2022-12-01T13:40:05.457Z,6.75
2022-12-01T13:41:40.052Z,6.69
2022-12-01T13:42:43.081Z,6.69
2022-12-01T13:43:51.400Z,6.69
2022-12-01T13:45:32.970Z,6.69
2022-12-01T13:46:35.938Z,6.69
2022-12-01T13:47:39.302Z,6.69
2022-12-01T13:49:13.822Z,6.69
2022-12-01T13:50:24.070Z,6.69
2022-12-01T13:51:26.964Z,6.69
2022-12-01T13:53:01.599Z,6.69
2022-12-01T13:54:04.362Z,6.63
2022-12-01T13:55:07.216Z,6.63
2022-12-01T13:56:41.891Z,6.63
2022-12-01T13:57:44.718Z,6.56
2022-12-01T13:58:47.611Z,6.56
2022-12-01T14:00:11.537Z,6.56
2022-12-01T14:01:14.900Z,6.56
2022-12-01T14:02:19.061Z,6.56
2022-12-01T14:03:57.011Z,6.50
2022-12-01T14:04:59.998Z,6.50
2022-12-01T14:06:02.877Z,6.50
2022-12-01T14:07:37.614Z,6.50
2022-12-01T14:08:41.026Z,6.50
2022-12-01T14:09:43.778Z,6.50
2022-12-01T14:11:18.649Z,6.44
2022-12-01T14:12:21.662Z,6.44
2022-12-01T14:13:24.436Z,6.44
2022-12-01T14:15:06.304Z,6.44
2022-12-01T14:16:09.211Z,6.44
2022-12-01T14:17:12.591Z,6.44
2022-12-01T14:18:47.316Z,6.44
2022-12-01T14:19:50.053Z,6.44
2022-12-01T14:20:52.790Z,6.44
2022-12-01T14:22:27.319Z,6.44
2022-12-01T14:23:30.065Z,6.44
2022-12-01T14:24:32.990Z,6.44
2022-12-01T14:26:07.927Z,6.44
2022-12-01T14:27:13.512Z,6.44
2022-12-01T14:28:16.233Z,6.44
2022-12-01T14:29:50.862Z,6.38
2022-12-01T14:30:53.678Z,6.38
2022-12-01T14:31:56.875Z,6.38
2022-12-01T14:33:31.456Z,6.38
2022-12-01T14:34:34.191Z,6.31
2022-12-01T14:35:37.463Z,6.31
2022-12-01T14:37:11.971Z,6.31
2022-12-01T14:38:14.788Z,6.31
2022-12-01T14:39:17.651Z,6.31
2022-12-01T14:40:52.060Z,6.31
2022-12-01T14:42:02.784Z,6.31
2022-12-01T14:43:05.373Z,6.31
2022-12-01T14:44:40.013Z,6.31
2022-12-01T14:45:43.770Z,6.31
2022-12-01T14:46:46.838Z,6.31
2022-12-01T14:48:21.819Z,6.25
2022-12-01T14:49:24.551Z,6.25
2022-12-01T14:50:27.504Z,6.25
2022-12-01T14:52:09.807Z,6.25
2022-12-01T14:53:12.685Z,6.25
2022-12-01T14:54:15.596Z,6.25
2022-12-01T14:55:50.165Z,6.25
2022-12-01T14:56:52.996Z,6.25
2022-12-01T14:58:08.795Z,6.25
2022-12-01T14:59:43.538Z,6.19
2022-12-01T15:00:11.857Z,6.19
2022-12-01T15:01:14.724Z,6.19
2022-12-01T15:02:18.010Z,6.19
2022-12-01T15:03:53.017Z,6.19
2022-12-01T15:04:55.729Z,6.19
2022-12-01T15:05:58.532Z,6.19
2022-12-01T15:07:33.181Z,6.19
2022-12-01T15:09:34.040Z,6.19
2022-12-01T15:10:37.976Z,6.19
2022-12-01T15:12:17.779Z,6.19
2022-12-01T15:13:20.507Z,6.13
2022-12-01T15:14:23.355Z,6.13
2022-12-01T15:16:04.264Z,6.13
2022-12-01T15:17:07.532Z,6.13
2022-12-01T15:18:10.348Z,6.13
2022-12-01T15:19:44.897Z,6.13
2022-12-01T15:20:48.137Z,6.13
2022-12-01T15:21:50.785Z,6.13
2022-12-01T15:23:25.420Z,6.13
2022-12-01T15:24:28.250Z,6.13
2022-12-01T15:25:31.444Z,6.13
2022-12-01T15:27:06.176Z,6.13
2022-12-01T15:28:08.795Z,6.13
2022-12-01T15:29:11.563Z,6.13
2022-12-01T15:30:46.128Z,6.13
2022-12-01T15:31:49.259Z,6.13
2022-12-01T15:32:52.714Z,6.13
2022-12-01T15:34:33.920Z,6.06
2022-12-01T15:35:37.079Z,6.13
2022-12-01T15:36:39.831Z,6.13
2022-12-01T15:38:14.336Z,6.06
2022-12-01T15:39:17.094Z,6.06
2022-12-01T15:42:58.381Z,6.06
2022-12-01T15:44:01.090Z,6.00
2022-12-01T15:45:03.757Z,6.00
2022-12-01T15:46:38.983Z,6.00
2022-12-01T15:47:41.682Z,6.00
2022-12-01T15:48:44.391Z,6.00
2022-12-01T15:50:18.958Z,6.00
2022-12-01T15:51:27.115Z,6.00
2022-12-01T15:52:30.009Z,6.00
2022-12-01T15:54:04.538Z,6.00
2022-12-01T15:55:07.427Z,6.00
2022-12-01T15:56:10.374Z,6.00
2022-12-01T15:57:44.856Z,5.94
2022-12-01T15:58:47.693Z,6.00
2022-12-01T15:59:50.380Z,6.00
2022-12-01T16:00:11.663Z,6.00
2022-12-01T16:01:14.532Z,5.94
2022-12-01T16:02:18.298Z,5.94
2022-12-01T16:03:53.662Z,5.94
2022-12-01T16:04:56.455Z,5.88
2022-12-01T16:05:59.190Z,5.88
2022-12-01T16:07:50.520Z,5.94
2022-12-01T16:09:11.630Z,5.88
2022-12-01T16:10:14.382Z,5.88
2022-12-01T16:11:49.049Z,5.88
2022-12-01T16:12:51.818Z,5.88
2022-12-01T16:13:54.631Z,5.88
2022-12-01T16:15:29.488Z,5.88
2022-12-01T16:16:32.344Z,5.88
2022-12-01T16:17:35.968Z,5.88
2022-12-01T16:19:10.650Z,5.88
2022-12-01T16:20:13.482Z,5.88
2022-12-01T16:21:16.394Z,5.88
2022-12-01T16:22:51.116Z,5.88
2022-12-01T16:23:53.923Z,5.88
2022-12-01T16:24:56.633Z,5.88
2022-12-01T16:26:36.823Z,5.88